Terminal Aerodrome Forecast
Issued by NWS

Home | Current Version | Previous Version | Text Only | Print | Product List | Glossary On
Versions: 1 2 3 4 5 6 7 8 9 10 11 12 13
000
FTUS46 KSEW 041700
TAFBLI
TAF
KBLI 041720Z 0418/0518 17010G18KT P6SM SKC
     FM042000 17014G20KT P6SM SCT040
     FM042200 17014G20KT P6SM BKN040
     FM050200 19012KT P6SM -SHRA SCT020 BKN040
     FM050700 16007KT P6SM -SHRA OVC030=

USA.gov is the U.S. government's official web portal to all federal, state and local government web resources and services.